createdAt,value
2019-06-07T00:02:18.625Z,10.03
2019-06-07T00:04:51.046Z,11.68
2019-06-07T00:07:22.997Z,10.18
2019-06-07T00:09:55.108Z,10.13
2019-06-07T00:12:27.074Z,8.80
2019-06-07T00:15:00.207Z,9.05
2019-06-07T00:17:32.166Z,12.10
2019-06-07T00:20:08.510Z,12.65
2019-06-07T00:22:39.915Z,11.57
2019-06-07T00:25:15.887Z,9.13
2019-06-07T00:27:47.702Z,11.83
2019-06-07T00:30:50.659Z,10.03
2019-06-07T00:32:55.539Z,12.10
2019-06-07T00:35:27.592Z,12.00
2019-06-07T00:37:59.555Z,8.95
2019-06-07T00:40:32.382Z,9.10
2019-06-07T00:43:04.627Z,8.65
2019-06-07T00:45:36.530Z,9.95
2019-06-07T00:48:08.464Z,9.23
2019-06-07T00:50:40.380Z,9.38
2019-06-07T00:53:17.257Z,11.30
2019-06-07T00:55:46.043Z,7.78
2019-06-07T00:58:21.836Z,11.53
2019-06-07T01:00:51.667Z,11.35
2019-06-07T01:03:25.813Z,11.30
2019-06-07T01:05:57.639Z,10.25
2019-06-07T01:08:30.248Z,6.03
2019-06-07T01:11:02.729Z,11.40
2019-06-07T01:13:35.366Z,8.35
2019-06-07T01:16:07.483Z,11.60
2019-06-07T01:18:46.193Z,9.43
2019-06-07T01:21:15.902Z,9.08
2019-06-07T01:24:08.053Z,10.80
2019-06-07T01:26:26.416Z,9.78
2019-06-07T01:28:57.899Z,10.95
2019-06-07T01:31:31.955Z,9.13
2019-06-07T01:34:04.443Z,11.15
2019-06-07T01:36:36.389Z,11.70
2019-06-07T01:39:08.659Z,8.85
2019-06-07T01:41:40.835Z,9.25
2019-06-07T01:44:13.355Z,10.53
2019-06-07T01:46:45.499Z,10.72
2019-06-07T01:49:17.387Z,12.37
2019-06-07T01:51:49.313Z,10.80
2019-06-07T01:56:55.960Z,13.38
2019-06-07T01:59:31.028Z,12.13
2019-06-07T02:02:01.618Z,12.05
2019-06-07T02:04:33.879Z,10.98
2019-06-07T02:07:05.992Z,12.78
2019-06-07T02:09:37.879Z,13.10
2019-06-07T02:12:25.477Z,12.73
2019-06-07T02:14:52.142Z,11.38
2019-06-07T02:17:30.946Z,14.15
2019-06-07T02:20:02.221Z,11.22
2019-06-07T02:22:34.251Z,13.75
2019-06-07T02:27:41.228Z,9.45
2019-06-07T02:32:47.168Z,13.83
2019-06-07T02:35:19.250Z,11.85
2019-06-07T02:37:51.224Z,10.45
2019-06-07T02:40:24.556Z,10.75
2019-06-07T02:42:57.217Z,13.60
2019-06-07T02:45:36.170Z,10.05
2019-06-07T02:48:04.010Z,13.62
2019-06-07T02:50:38.703Z,13.13
2019-06-07T02:53:10.177Z,14.15
2019-06-07T02:56:33.265Z,13.62
2019-06-07T02:58:15.694Z,13.85
2019-06-07T03:01:09.188Z,13.08
2019-06-07T03:03:24.681Z,9.70
2019-06-07T03:05:57.862Z,10.93
2019-06-07T03:08:35.446Z,8.70
2019-06-07T03:11:06.813Z,10.68
2019-06-07T03:13:40.996Z,8.75
2019-06-07T03:16:15.137Z,11.90
2019-06-07T03:18:55.992Z,11.60
2019-06-07T03:21:33.754Z,7.62
2019-06-07T03:24:05.843Z,9.90
2019-06-07T03:27:30.530Z,10.10
2019-06-07T03:29:12.338Z,10.13
2019-06-07T03:31:47.750Z,8.65
2019-06-07T03:34:17.799Z,10.35
2019-06-07T03:36:49.762Z,11.22
2019-06-07T03:39:21.766Z,10.53
2019-06-07T03:42:05.912Z,9.93
2019-06-07T03:44:28.568Z,11.40
2019-06-07T03:47:01.055Z,10.45
2019-06-07T03:49:38.783Z,10.00
2019-06-07T03:52:06.722Z,8.28
2019-06-07T03:54:39.900Z,9.93
2019-06-07T03:57:11.976Z,8.60
2019-06-07T03:59:43.882Z,8.23
2019-06-07T04:02:15.917Z,8.80
2019-06-07T04:04:47.845Z,13.00
2019-06-07T04:07:19.684Z,9.53
2019-06-07T04:09:51.756Z,10.08
2019-06-07T04:12:23.789Z,11.73
2019-06-07T04:14:55.723Z,12.28
2019-06-07T04:17:31.152Z,14.75
2019-06-07T04:20:01.490Z,10.30
2019-06-07T04:22:38.831Z,13.93
2019-06-07T04:25:12.522Z,13.95
2019-06-07T04:27:44.530Z,10.43
2019-06-07T04:30:26.599Z,10.10
2019-06-07T04:32:58.503Z,11.43
2019-06-07T04:35:31.396Z,12.37
2019-06-07T04:38:04.395Z,10.88
2019-06-07T04:40:39.960Z,12.53
2019-06-07T04:43:11.407Z,10.48
2019-06-07T04:45:50.808Z,9.78
2019-06-07T04:48:18.776Z,13.22
2019-06-07T04:50:52.466Z,11.95
2019-06-07T04:53:24.610Z,12.58
2019-06-07T04:55:57.008Z,9.98
2019-06-07T04:58:30.451Z,9.60
2019-06-07T05:01:03.850Z,8.90
2019-06-07T05:03:38.857Z,7.60
2019-06-07T05:06:09.626Z,7.90
2019-06-07T05:08:43.588Z,10.20
2019-06-07T05:11:15.310Z,11.88
2019-06-07T05:13:47.271Z,7.08
2019-06-07T05:16:19.256Z,7.33
2019-06-07T05:18:51.196Z,8.35
2019-06-07T05:21:23.122Z,7.65
2019-06-07T05:24:06.394Z,10.70
2019-06-07T05:26:30.500Z,7.70
2019-06-07T05:29:02.216Z,7.62
2019-06-07T05:31:35.785Z,7.78
2019-06-07T05:34:07.766Z,7.85
2019-06-07T05:36:44.271Z,10.25
2019-06-07T05:39:13.452Z,8.00
2019-06-07T05:41:45.431Z,6.25
2019-06-07T05:44:17.399Z,10.45
2019-06-07T05:46:49.468Z,8.18
2019-06-07T05:49:22.454Z,7.55
2019-06-07T05:51:54.410Z,6.05
2019-06-07T05:54:26.326Z,7.15
2019-06-07T05:56:58.298Z,6.28
2019-06-07T05:59:30.277Z,7.15
2019-06-07T06:02:21.216Z,8.45
2019-06-07T06:04:39.327Z,5.92
2019-06-07T06:07:11.049Z,7.30
2019-06-07T06:09:43.821Z,6.15
2019-06-07T06:12:34.117Z,5.22
2019-06-07T06:14:52.045Z,5.00
2019-06-07T06:17:24.336Z,4.83
2019-06-07T06:19:56.214Z,5.20
2019-06-07T06:22:28.135Z,4.85
2019-06-07T06:25:30.751Z,3.33
2019-06-07T06:30:12.895Z,4.22
2019-06-07T06:32:52.644Z,3.02
2019-06-07T06:35:19.545Z,2.37
2019-06-07T06:37:53.466Z,2.92
2019-06-07T06:40:26.686Z,4.00
2019-06-07T06:42:58.677Z,3.37
2019-06-07T06:45:30.605Z,3.87
2019-06-07T06:48:02.610Z,1.95
2019-06-07T06:50:34.648Z,4.80
2019-06-07T06:53:52.599Z,2.62
2019-06-07T06:56:25.670Z,3.40
2019-06-07T06:59:35.186Z,3.95
2019-06-07T07:01:31.677Z,6.03
2019-06-07T07:04:11.982Z,6.72
2019-06-07T07:06:38.337Z,6.00
2019-06-07T07:09:10.276Z,5.47
2019-06-07T07:11:55.235Z,3.27
2019-06-07T07:14:16.082Z,5.42
2019-06-07T07:16:53.557Z,7.05
2019-06-07T07:19:21.660Z,4.75
2019-06-07T07:21:55.321Z,5.12
2019-06-07T07:24:28.190Z,8.18
2019-06-07T07:27:00.199Z,10.08
2019-06-07T07:29:32.391Z,11.38
2019-06-07T07:32:04.463Z,10.35
2019-06-07T07:34:37.566Z,10.03
2019-06-07T07:37:09.753Z,13.75
2019-06-07T07:39:41.667Z,8.50
2019-06-07T07:42:20.889Z,8.13
2019-06-07T07:44:49.887Z,11.28
2019-06-07T07:47:21.049Z,8.20
2019-06-07T07:49:56.388Z,10.68
2019-06-07T07:52:26.636Z,7.97
2019-06-07T07:54:58.652Z,10.98
2019-06-07T07:57:30.538Z,8.23
2019-06-07T08:00:36.881Z,7.03
2019-06-07T08:02:36.129Z,8.10
2019-06-07T08:05:25.251Z,7.30
2019-06-07T08:07:42.194Z,9.00
2019-06-07T08:10:14.573Z,7.25
2019-06-07T08:13:08.915Z,6.55
2019-06-07T08:15:20.532Z,6.45
2019-06-07T08:17:58.041Z,6.03
2019-06-07T08:20:26.162Z,4.55
2019-06-07T08:23:01.134Z,4.08
2019-06-07T08:25:32.825Z,3.45
2019-06-07T08:28:05.780Z,4.17
2019-06-07T08:30:58.353Z,4.08
2019-06-07T08:33:25.305Z,5.15
2019-06-07T08:36:06.035Z,4.28
2019-06-07T08:38:27.296Z,3.87
2019-06-07T08:40:56.726Z,4.78
2019-06-07T08:43:25.857Z,4.17
2019-06-07T08:46:02.277Z,2.98
2019-06-07T08:48:31.486Z,3.20
2019-06-07T08:51:08.057Z,4.03
2019-06-07T08:53:37.091Z,3.70
2019-06-07T08:56:10.930Z,3.95
2019-06-07T08:58:42.543Z,5.20
2019-06-07T09:01:14.528Z,4.35
2019-06-07T09:03:46.480Z,3.92
2019-06-07T09:07:01.227Z,3.50
2019-06-07T09:08:53.337Z,3.65
2019-06-07T09:11:25.871Z,3.75
2019-06-07T09:14:02.157Z,3.17
2019-06-07T09:16:31.616Z,3.33
2019-06-07T09:19:10.312Z,3.35
2019-06-07T09:21:38.565Z,2.40
2019-06-07T09:24:11.965Z,2.60
2019-06-07T09:26:44.316Z,4.50
2019-06-07T09:29:16.738Z,3.75
2019-06-07T09:31:53.138Z,2.98
2019-06-07T09:34:22.385Z,2.58
2019-06-07T09:36:57.531Z,3.72
2019-06-07T09:39:28.435Z,2.85
2019-06-07T09:42:01.643Z,2.95
2019-06-07T09:44:34.114Z,4.20
2019-06-07T09:47:22.194Z,3.37
2019-06-07T09:49:39.803Z,3.98
2019-06-07T09:52:11.682Z,2.92
2019-06-07T09:55:06.240Z,3.15
2019-06-07T09:57:18.011Z,4.35
2019-06-07T09:59:50.820Z,3.45
2019-06-07T10:02:22.848Z,3.90
2019-06-07T10:04:54.731Z,3.22
2019-06-07T10:07:31.687Z,3.55
2019-06-07T10:12:34.867Z,2.65
2019-06-07T10:15:08.939Z,4.83
2019-06-07T10:17:41.133Z,3.40
2019-06-07T10:20:13.243Z,2.00
2019-06-07T10:22:45.150Z,3.10
2019-06-07T10:25:17.059Z,3.37
2019-06-07T10:27:49.043Z,3.87
2019-06-07T10:30:22.508Z,3.58
2019-06-07T10:32:54.433Z,3.42
2019-06-07T10:35:26.604Z,2.08
2019-06-07T10:37:58.714Z,3.22
2019-06-07T10:40:30.662Z,4.03
2019-06-07T10:43:03.046Z,3.08
2019-06-07T10:45:35.085Z,2.60
2019-06-07T10:48:07.651Z,2.60
2019-06-07T10:50:39.608Z,3.72
2019-06-07T10:53:12.539Z,4.22
2019-06-07T10:55:45.825Z,2.92
2019-06-07T10:58:17.809Z,3.55
2019-06-07T11:00:49.756Z,4.03
2019-06-07T11:03:21.689Z,3.10
2019-06-07T11:05:53.723Z,3.33
2019-06-07T11:08:25.663Z,3.37
2019-06-07T11:10:57.708Z,3.35
2019-06-07T11:13:29.757Z,3.35
2019-06-07T11:16:01.712Z,3.33
2019-06-07T11:18:33.810Z,3.33
2019-06-07T11:21:08.426Z,2.83
2019-06-07T11:23:40.714Z,3.65
2019-06-07T11:26:12.606Z,4.03
2019-06-07T11:28:44.578Z,3.47
2019-06-07T11:31:16.541Z,3.70
2019-06-07T11:33:48.537Z,3.42
2019-06-07T11:36:21.753Z,11.70
2019-06-07T11:38:53.840Z,3.87
2019-06-07T11:41:26.075Z,2.75
2019-06-07T11:43:58.093Z,3.30
2019-06-07T11:46:30.264Z,3.77
2019-06-07T11:49:02.277Z,2.95
2019-06-07T11:51:34.279Z,3.60
2019-06-07T11:54:07.789Z,2.85
2019-06-07T11:56:39.881Z,2.65
2019-06-07T11:59:13.141Z,2.83
2019-06-07T12:01:45.442Z,2.70
2019-06-07T12:04:32.389Z,2.92
2019-06-07T12:06:51.099Z,2.98
2019-06-07T12:09:23.109Z,2.58
2019-06-07T12:11:54.967Z,3.40
2019-06-07T12:14:26.867Z,4.55
2019-06-07T12:16:58.759Z,4.70
2019-06-07T12:19:30.949Z,3.25
2019-06-07T12:22:02.840Z,3.60
2019-06-07T12:24:34.743Z,3.83
2019-06-07T12:27:06.715Z,3.95
2019-06-07T12:29:38.539Z,3.52
2019-06-07T12:32:11.237Z,3.75
2019-06-07T12:34:43.301Z,3.12
2019-06-07T12:37:18.939Z,3.62
2019-06-07T12:39:48.970Z,3.47
2019-06-07T12:42:21.078Z,2.72
2019-06-07T12:44:53.013Z,1.87
2019-06-07T12:47:25.069Z,2.40
2019-06-07T12:49:57.020Z,3.02
2019-06-07T12:52:28.975Z,3.75
2019-06-07T12:55:01.151Z,3.45
2019-06-07T12:57:33.009Z,2.85
2019-06-07T13:00:13.946Z,2.37
2019-06-07T13:02:47.031Z,2.10
2019-06-07T13:05:19.969Z,2.67
2019-06-07T13:07:52.120Z,2.50
2019-06-07T13:10:24.199Z,2.58
2019-06-07T13:12:56.241Z,1.75
2019-06-07T13:15:28.382Z,2.22
2019-06-07T13:18:00.591Z,2.55
2019-06-07T13:20:32.634Z,2.27
2019-06-07T13:23:04.705Z,2.70
2019-06-07T13:25:46.363Z,2.70
2019-06-07T13:28:10.466Z,5.45
2019-06-07T13:30:42.383Z,2.58
2019-06-07T13:33:14.327Z,2.70
2019-06-07T13:35:46.969Z,2.30
2019-06-07T13:38:26.698Z,2.85
2019-06-07T13:41:04.642Z,2.80
2019-06-07T13:43:36.469Z,2.87
2019-06-07T13:46:12.679Z,3.30
2019-06-07T13:48:42.108Z,3.62
2019-06-07T13:51:14.042Z,2.95
2019-06-07T13:53:45.851Z,3.05
2019-06-07T13:56:17.834Z,2.90
2019-06-07T13:58:49.798Z,2.60
2019-06-07T14:01:22.460Z,3.25
2019-06-07T14:03:54.785Z,3.70
2019-06-07T14:06:28.156Z,3.42
2019-06-07T14:09:00.512Z,3.77
2019-06-07T14:11:49.510Z,2.33
2019-06-07T14:14:07.892Z,2.30
2019-06-07T14:16:39.968Z,3.12
2019-06-07T14:19:11.830Z,2.47
2019-06-07T14:21:44.630Z,2.75
2019-06-07T14:24:16.450Z,2.67
2019-06-07T14:27:06.609Z,2.65
2019-06-07T14:29:39.537Z,3.00
2019-06-07T14:32:11.510Z,2.20
2019-06-07T14:34:43.459Z,2.85
2019-06-07T14:37:15.438Z,2.30
2019-06-07T14:39:47.409Z,1.87
2019-06-07T14:42:19.353Z,2.80
2019-06-07T14:44:51.209Z,2.80
2019-06-07T14:47:40.020Z,2.40
2019-06-07T14:50:12.897Z,2.08
2019-06-07T14:52:44.802Z,3.60
2019-06-07T14:55:16.890Z,2.30
2019-06-07T14:57:49.055Z,4.05
2019-06-07T15:00:22.769Z,3.22
2019-06-07T15:02:54.675Z,3.72
2019-06-07T15:05:31.339Z,4.22
2019-06-07T15:08:05.249Z,3.75
2019-06-07T15:10:37.225Z,2.90
2019-06-07T15:13:09.269Z,3.20
2019-06-07T15:15:41.604Z,2.98
2019-06-07T15:18:13.527Z,2.77
2019-06-07T15:20:45.401Z,2.70
2019-06-07T15:23:17.325Z,2.95
2019-06-07T15:25:49.145Z,3.12
2019-06-07T15:28:21.520Z,2.50
2019-06-07T15:30:53.383Z,5.08
2019-06-07T15:33:27.773Z,2.37
2019-06-07T15:35:59.748Z,3.02
2019-06-07T15:38:33.090Z,7.53
2019-06-07T15:41:05.186Z,4.47
2019-06-07T15:43:37.519Z,3.52
2019-06-07T15:46:09.550Z,3.77
2019-06-07T15:48:41.541Z,4.70
2019-06-07T15:51:13.398Z,4.37
2019-06-07T15:53:45.310Z,3.02
2019-06-07T15:56:17.185Z,4.92
2019-06-07T15:58:49.182Z,4.25
2019-06-07T16:01:21.055Z,3.10
2019-06-07T16:03:53.138Z,3.30
2019-06-07T16:06:25.183Z,4.65
2019-06-07T16:08:57.250Z,3.55
2019-06-07T16:11:29.285Z,4.00
2019-06-07T16:14:01.497Z,4.33
2019-06-07T16:16:35.045Z,3.65
2019-06-07T16:19:07.327Z,6.33
2019-06-07T16:21:39.541Z,4.12
2019-06-07T16:24:11.548Z,4.97
2019-06-07T16:26:44.563Z,5.62
2019-06-07T16:29:16.759Z,4.65
2019-06-07T16:31:48.722Z,3.52
2019-06-07T16:34:20.724Z,3.67
2019-06-07T16:36:52.686Z,3.92
2019-06-07T16:39:24.669Z,3.70
2019-06-07T16:41:56.860Z,5.37
2019-06-07T16:44:30.462Z,4.35
2019-06-07T16:47:02.579Z,4.40
2019-06-07T16:49:34.711Z,5.80
2019-06-07T16:52:06.683Z,5.33
2019-06-07T16:54:39.331Z,6.03
2019-06-07T16:57:11.273Z,4.12
2019-06-07T16:59:49.075Z,3.92
2019-06-07T17:02:20.014Z,3.77
2019-06-07T17:04:52.012Z,3.42
2019-06-07T17:07:23.829Z,3.47
2019-06-07T17:09:55.801Z,4.30
2019-06-07T17:12:27.765Z,3.58
2019-06-07T17:14:59.734Z,3.65
2019-06-07T17:17:31.604Z,3.50
2019-06-07T17:20:04.807Z,3.65
2019-06-07T17:22:37.300Z,4.33
2019-06-07T17:25:11.678Z,4.53
2019-06-07T17:27:43.977Z,3.15
2019-06-07T17:30:16.889Z,5.85
2019-06-07T17:32:58.501Z,5.08
2019-06-07T17:35:22.667Z,5.10
2019-06-07T17:37:54.706Z,7.58
2019-06-07T17:40:26.754Z,5.40
2019-06-07T17:42:58.755Z,4.08
2019-06-07T17:45:31.021Z,3.58
2019-06-07T17:48:03.104Z,3.52
2019-06-07T17:50:35.294Z,3.47
2019-06-07T17:53:07.943Z,3.40
2019-06-07T17:55:41.959Z,5.40
2019-06-07T17:58:13.983Z,9.45
2019-06-07T18:00:58.789Z,13.28
2019-06-07T18:03:30.760Z,5.85
2019-06-07T18:06:04.516Z,4.58
2019-06-07T18:08:36.803Z,4.08
2019-06-07T18:11:08.800Z,4.65
2019-06-07T18:13:41.177Z,5.05
2019-06-07T18:16:13.306Z,5.22
2019-06-07T18:18:46.875Z,4.87
2019-06-07T18:21:19.692Z,6.95
2019-06-07T18:23:52.998Z,5.55
2019-06-07T18:26:25.418Z,5.65
2019-06-07T18:28:59.296Z,5.58
2019-06-07T18:31:32.048Z,5.70
2019-06-07T18:34:03.932Z,5.70
2019-06-07T18:36:37.517Z,5.17
2019-06-07T18:39:09.989Z,4.90
2019-06-07T18:41:43.488Z,8.40
2019-06-07T18:44:21.544Z,8.68
2019-06-07T18:46:50.136Z,7.08
2019-06-07T18:49:22.251Z,7.17
2019-06-07T18:52:15.265Z,7.78
2019-06-07T18:54:48.722Z,8.30
2019-06-07T18:57:20.968Z,10.53
2019-06-07T18:59:52.863Z,11.75
2019-06-07T19:02:25.874Z,13.58
2019-06-07T19:04:59.823Z,13.50
2019-06-07T19:07:31.693Z,13.40
2019-06-07T19:10:11.344Z,10.95
2019-06-07T19:12:44.678Z,10.50
2019-06-07T19:15:19.514Z,10.65
2019-06-07T19:17:52.164Z,10.55
2019-06-07T19:20:24.404Z,10.13
2019-06-07T19:22:56.574Z,9.65
2019-06-07T19:25:28.563Z,7.83
2019-06-07T19:28:01.097Z,7.30
2019-06-07T19:30:33.234Z,6.53
2019-06-07T19:33:48.458Z,6.62
2019-06-07T19:36:08.688Z,5.90
2019-06-07T19:38:40.803Z,7.72
2019-06-07T19:41:19.648Z,7.45
2019-06-07T19:43:48.153Z,7.80
2019-06-07T19:46:20.087Z,9.23
2019-06-07T19:48:52.506Z,8.00
2019-06-07T19:51:24.527Z,8.80
2019-06-07T19:53:57.106Z,8.63
2019-06-07T19:56:29.112Z,7.58
2019-06-07T19:59:01.815Z,7.35
2019-06-07T20:01:34.287Z,8.08
2019-06-07T20:04:06.269Z,7.62
2019-06-07T20:06:38.330Z,8.00
2019-06-07T20:09:10.356Z,8.15
2019-06-07T20:11:42.397Z,8.43
2019-06-07T20:14:14.532Z,8.03
2019-06-07T20:16:46.423Z,8.63
2019-06-07T20:19:18.625Z,9.05
2019-06-07T20:21:50.605Z,12.53
2019-06-07T20:24:27.409Z,10.35
2019-06-07T20:26:56.238Z,8.28
2019-06-07T20:29:30.129Z,8.33
2019-06-07T20:32:02.514Z,7.35
2019-06-07T20:34:34.629Z,9.13
2019-06-07T20:37:07.729Z,7.58
2019-06-07T20:39:40.295Z,7.55
2019-06-07T20:42:12.223Z,8.70
2019-06-07T20:47:52.154Z,8.90
2019-06-07T20:50:24.052Z,10.05
2019-06-07T20:52:55.956Z,9.75
2019-06-07T20:55:27.862Z,10.80
2019-06-07T20:58:01.185Z,9.25
2019-06-07T21:00:33.315Z,9.93
2019-06-07T21:03:07.246Z,12.43
2019-06-07T21:05:39.394Z,12.20
2019-06-07T21:08:12.875Z,11.55
2019-06-07T21:10:45.198Z,11.28
2019-06-07T21:13:17.171Z,11.53
2019-06-07T21:15:49.494Z,11.20
2019-06-07T21:18:21.673Z,10.93
2019-06-07T21:20:53.763Z,13.65
2019-06-07T21:23:25.653Z,16.62
2019-06-07T21:25:58.744Z,15.53
2019-06-07T21:28:30.798Z,15.88
2019-06-07T21:31:03.786Z,19.23
2019-06-07T21:33:36.361Z,21.40
2019-06-07T21:36:09.706Z,17.52
2019-06-07T21:38:41.694Z,14.00
2019-06-07T21:41:13.669Z,12.53
2019-06-07T21:43:45.653Z,10.95
2019-06-07T21:46:20.441Z,12.85
2019-06-07T21:48:51.524Z,11.48
2019-06-07T21:51:23.564Z,13.00
2019-06-07T21:53:57.108Z,13.80
2019-06-07T21:56:29.165Z,16.65
2019-06-07T21:59:01.129Z,17.98
2019-06-07T22:01:33.774Z,18.82
2019-06-07T22:04:07.339Z,17.37
2019-06-07T22:06:39.606Z,15.48
2019-06-07T22:09:12.372Z,16.10
2019-06-07T22:11:44.447Z,18.17
2019-06-07T22:14:16.339Z,16.82
2019-06-07T22:16:48.268Z,16.42
2019-06-07T22:19:20.096Z,14.80
2019-06-07T22:22:02.234Z,12.93
2019-06-07T22:24:25.803Z,12.45
2019-06-07T22:26:57.705Z,12.13
2019-06-07T22:29:29.630Z,12.30
2019-06-07T22:32:01.675Z,13.65
2019-06-07T22:34:33.657Z,12.53
2019-06-07T22:37:07.049Z,11.95
2019-06-07T22:39:39.257Z,12.00
2019-06-07T22:42:13.507Z,12.58
2019-06-07T22:44:45.539Z,13.43
2019-06-07T22:47:18.319Z,12.47
2019-06-07T22:49:50.466Z,13.93
2019-06-07T22:52:22.501Z,13.95
2019-06-07T22:54:54.469Z,12.60
2019-06-07T22:57:29.198Z,13.20
2019-06-07T23:00:08.590Z,12.37
2019-06-07T23:02:35.146Z,13.25
2019-06-07T23:05:08.430Z,14.28
2019-06-07T23:07:40.604Z,14.75
2019-06-07T23:10:13.390Z,15.35
2019-06-07T23:12:45.469Z,14.28
2019-06-07T23:15:18.142Z,14.47
2019-06-07T23:17:51.366Z,16.07
2019-06-07T23:20:23.507Z,15.95
2019-06-07T23:23:01.791Z,15.20
2019-06-07T23:25:33.699Z,15.38
2019-06-07T23:28:05.828Z,16.70
2019-06-07T23:30:37.935Z,16.27
2019-06-07T23:33:14.824Z,17.20
2019-06-07T23:35:58.829Z,17.40
2019-06-07T23:38:30.881Z,16.00
2019-06-07T23:41:17.634Z,15.15
2019-06-07T23:43:55.761Z,16.57
2019-06-07T23:47:10.890Z,15.98
2019-06-07T23:49:36.840Z,15.83
2019-06-07T23:52:11.329Z,15.43
2019-06-07T23:54:44.904Z,16.55
2019-06-07T23:57:18.866Z,19.70
2019-06-07T23:59:50.704Z,16.93
